Time;durP1;ratioP1;P1;durP2;ratioP2;P2;SDS_P1;SDS_P2;PMS_P1;PMS_P2;Temp;Humidity;BMP_temperature;BMP_pressure;BME280_temperature;BME280_humidity;BME280_pressure;Samples;Min_cycle;Max_cycle;Signal;HPM_P1;HPM_P2
2023/07/05 00:00:21;;;;;;;3.97;3.67;;;21.20;77.50;;;;;;10541191;28;20660;-79
2023/07/05 00:05:39;;;;;;;4.80;4.40;;;21.30;77.80;;;;;;10540461;28;20251;-80
2023/07/05 00:10:41;;;;;;;4.57;4.17;;;21.30;77.60;;;;;;10539576;28;20212;-78
2023/07/05 00:15:47;;;;;;;3.87;3.57;;;21.40;78.30;;;;;;10539796;28;20303;-79
2023/07/05 00:20:59;;;;;;;4.93;3.70;;;21.50;77.30;;;;;;10540311;28;20235;-78
2023/07/05 00:26:04;;;;;;;4.00;3.77;;;21.60;77.10;;;;;;10505694;28;20221;-79
2023/07/05 00:31:07;;;;;;;4.00;3.60;;;21.60;76.30;;;;;;10539470;28;20221;-79
2023/07/05 00:36:10;;;;;;;4.30;3.50;;;21.60;76.90;;;;;;10520479;28;20225;-77
2023/07/05 00:41:13;;;;;;;4.27;3.93;;;21.60;77.10;;;;;;10520894;28;20200;-78
2023/07/05 00:46:20;;;;;;;5.97;4.00;;;21.60;77.50;;;;;;10538640;28;20239;-78
2023/07/05 00:51:29;;;;;;;3.60;3.40;;;21.70;77.50;;;;;;10502852;28;20304;-79
2023/07/05 00:56:36;;;;;;;3.73;3.20;;;21.70;77.20;;;;;;10520168;28;20273;-78
2023/07/05 01:01:39;;;;;;;4.23;3.30;;;21.70;76.40;;;;;;10493877;28;20200;-80
2023/07/05 01:06:43;;;;;;;3.40;3.20;;;21.70;77.90;;;;;;10516430;28;20228;-78
2023/07/05 01:11:55;;;;;;;3.73;3.43;;;21.70;76.40;;;;;;10524418;28;20282;-77
2023/07/05 01:17:10;;;;;;;3.30;3.10;;;21.70;76.80;;;;;;10519011;28;20251;-77
2023/07/05 01:22:27;;;;;;;3.50;3.20;;;21.60;77.10;;;;;;10512482;28;20203;-79
2023/07/05 01:28:06;;;;;;;3.77;3.57;;;21.60;84.30;;;;;;10518525;28;20564;-78
2023/07/05 01:33:47;;;;;;;3.47;3.27;;;21.30;89.90;;;;;;10507528;28;20254;-78
2023/07/05 01:38:52;;;;;;;3.67;3.23;;;20.90;87.70;;;;;;10515832;28;20212;-77
2023/07/05 01:43:57;;;;;;;3.60;3.40;;;20.60;89.30;;;;;;10499115;28;20683;-77
2023/07/05 01:49:18;;;;;;;3.70;3.47;;;20.60;90.80;;;;;;10517568;28;20611;-79
2023/07/05 01:54:25;;;;;;;2.90;2.80;;;20.70;91.30;;;;;;10537936;28;20204;-77
2023/07/05 01:59:31;;;;;;;3.20;3.00;;;20.80;90.60;;;;;;10526092;28;20223;-79
2023/07/05 02:04:36;;;;;;;3.10;2.90;;;20.90;89.70;;;;;;10519526;28;20204;-79
2023/07/05 02:09:39;;;;;;;3.47;3.23;;;21.00;88.70;;;;;;10534402;28;20248;-78
2023/07/05 02:14:41;;;;;;;3.60;3.40;;;21.10;89.20;;;;;;10536333;28;20206;-79
2023/07/05 02:19:44;;;;;;;3.17;2.97;;;21.20;87.70;;;;;;10534937;28;20224;-78
2023/07/05 02:24:49;;;;;;;3.53;3.10;;;21.30;87.40;;;;;;10517903;28;20291;-79
2023/07/05 02:29:51;;;;;;;3.20;3.00;;;21.30;86.10;;;;;;10516634;28;20227;-79
2023/07/05 02:34:55;;;;;;;4.17;3.83;;;21.40;84.00;;;;;;10518662;28;20207;-79
2023/07/05 02:39:57;;;;;;;3.30;3.10;;;21.40;85.10;;;;;;10517875;28;20199;-79
2023/07/05 02:44:59;;;;;;;3.37;3.17;;;21.50;86.30;;;;;;10518833;28;20201;-78
2023/07/05 02:50:03;;;;;;;3.83;3.60;;;21.40;89.10;;;;;;10517934;28;20224;-77
2023/07/05 02:55:06;;;;;;;3.57;3.20;;;21.30;90.00;;;;;;10502801;28;20307;-78
2023/07/05 03:00:11;;;;;;;4.13;3.70;;;21.20;90.80;;;;;;10519113;28;20262;-78
2023/07/05 03:05:14;;;;;;;3.23;3.10;;;21.20;91.30;;;;;;10529723;28;20729;-78
2023/07/05 03:10:17;;;;;;;3.03;2.87;;;21.20;91.40;;;;;;10522126;28;20224;-79
2023/07/05 03:15:19;;;;;;;5.20;2.93;;;21.10;90.70;;;;;;10543755;28;20303;-79
2023/07/05 03:20:23;;;;;;;3.53;3.33;;;21.10;90.90;;;;;;10543664;28;20258;-79
2023/07/05 03:25:25;;;;;;;5.03;3.23;;;21.20;90.60;;;;;;10515170;28;20213;-77
2023/07/05 03:30:28;;;;;;;3.30;3.10;;;21.20;91.00;;;;;;10526586;28;20226;-79
2023/07/05 03:35:31;;;;;;;2.67;2.57;;;21.30;90.70;;;;;;10524123;28;20304;-78
2023/07/05 03:40:33;;;;;;;3.93;3.20;;;21.30;91.10;;;;;;10522989;28;20246;-78
2023/07/05 03:45:35;;;;;;;4.07;3.37;;;21.30;90.60;;;;;;10523060;28;20266;-79
2023/07/05 03:50:39;;;;;;;3.30;3.10;;;21.30;88.20;;;;;;10523259;28;20918;-78
2023/07/05 03:55:41;;;;;;;3.43;3.10;;;21.30;88.60;;;;;;10541227;28;20588;-79
2023/07/05 04:00:43;;;;;;;3.00;2.80;;;21.20;89.50;;;;;;10541017;28;20189;-78
2023/07/05 04:05:47;;;;;;;7.50;3.10;;;21.10;90.40;;;;;;10545450;28;20224;-79
2023/07/05 04:10:50;;;;;;;3.40;3.20;;;21.10;90.80;;;;;;10519807;28;20275;-78
2023/07/05 04:15:59;;;;;;;3.30;3.10;;;21.10;90.60;;;;;;10537813;28;20223;-77
2023/07/05 04:21:03;;;;;;;3.40;3.20;;;21.10;90.80;;;;;;10538991;28;20203;-77
2023/07/05 04:26:07;;;;;;;2.90;2.70;;;21.10;90.70;;;;;;10536062;28;20240;-78
2023/07/05 04:31:12;;;;;;;3.50;2.80;;;21.10;91.10;;;;;;10499094;28;20876;-78
2023/07/05 04:36:15;;;;;;;2.60;2.40;;;21.10;91.20;;;;;;10536294;28;20220;-77
2023/07/05 04:41:18;;;;;;;3.23;2.93;;;21.10;90.90;;;;;;10519654;28;20248;-77
2023/07/05 04:46:20;;;;;;;2.43;2.33;;;21.00;91.10;;;;;;10520742;28;20216;-77
2023/07/05 04:51:24;;;;;;;2.83;2.57;;;21.00;90.80;;;;;;10533234;28;20279;-80
2023/07/05 04:56:26;;;;;;;2.53;2.13;;;21.00;90.70;;;;;;10536593;28;20303;-79
2023/07/05 05:01:28;;;;;;;2.30;2.10;;;21.00;91.00;;;;;;10513740;28;20278;-76
2023/07/05 05:06:31;;;;;;;2.60;2.40;;;21.00;90.90;;;;;;10562397;22;20324;-84
2023/07/05 05:11:34;;;;;;;2.67;2.47;;;21.00;90.90;;;;;;10550813;28;20224;-82
2023/07/05 05:16:36;;;;;;;3.90;2.50;;;21.10;90.80;;;;;;10566520;28;20226;-82
2023/07/05 05:21:39;;;;;;;2.37;2.20;;;21.20;90.70;;;;;;10562024;28;20197;-84
2023/07/05 05:26:41;;;;;;;2.57;2.20;;;21.30;90.40;;;;;;10540359;28;20270;-84
2023/07/05 05:31:43;;;;;;;2.17;2.07;;;21.30;90.60;;;;;;10563920;28;20212;-80
2023/07/05 05:36:47;;;;;;;2.37;2.17;;;21.40;90.80;;;;;;10547150;28;20227;-82
2023/07/05 05:41:49;;;;;;;2.87;2.43;;;21.60;90.50;;;;;;10567936;28;20193;-83
2023/07/05 05:46:51;;;;;;;2.30;2.20;;;21.60;91.00;;;;;;10572150;28;20224;-83
2023/07/05 05:51:54;;;;;;;2.50;2.30;;;21.70;90.50;;;;;;10567227;28;20251;-84
2023/07/05 05:56:56;;;;;;;2.30;2.20;;;21.70;90.70;;;;;;10561646;28;20225;-83
2023/07/05 06:01:58;;;;;;;2.77;2.53;;;22.00;90.90;;;;;;10568764;28;20209;-83
2023/07/05 06:07:02;;;;;;;2.00;1.90;;;22.30;90.00;;;;;;10563254;28;20259;-84
2023/07/05 06:12:05;;;;;;;3.20;2.60;;;22.50;89.70;;;;;;10547228;28;20219;-83
2023/07/05 06:17:07;;;;;;;2.67;2.37;;;22.60;89.10;;;;;;10566890;28;20227;-83
2023/07/05 06:22:10;;;;;;;2.37;2.27;;;22.80;87.80;;;;;;10552571;28;20208;-82
2023/07/05 06:27:13;;;;;;;3.97;3.63;;;22.80;86.40;;;;;;10573444;28;20744;-83
2023/07/05 06:32:15;;;;;;;2.53;2.40;;;22.80;86.70;;;;;;10557993;28;20356;-83
2023/07/05 06:37:18;;;;;;;2.70;2.50;;;22.80;87.30;;;;;;10579596;28;20217;-82
2023/07/05 06:42:20;;;;;;;3.17;2.33;;;23.00;86.80;;;;;;10578019;28;20196;-83
2023/07/05 06:47:30;;;;;;;3.70;2.73;;;23.10;88.70;;;;;;10564184;28;20306;-84
2023/07/05 06:52:34;;;;;;;2.90;2.70;;;23.10;90.90;;;;;;10578396;28;20221;-84
2023/07/05 06:57:36;;;;;;;3.70;3.50;;;22.80;92.20;;;;;;10558409;28;20630;-83
2023/07/05 07:02:38;;;;;;;3.90;3.60;;;22.30;94.10;;;;;;10576204;28;20192;-84
2023/07/05 07:07:42;;;;;;;5.60;4.97;;;21.80;95.60;;;;;;10571356;28;20224;-84
2023/07/05 07:12:44;;;;;;;5.87;5.40;;;21.40;96.80;;;;;;10587980;28;20212;-81
2023/07/05 07:17:46;;;;;;;6.97;6.57;;;21.10;97.90;;;;;;10587513;28;20716;-81
2023/07/05 07:22:50;;;;;;;8.77;8.37;;;20.90;99.70;;;;;;10576632;28;20290;-83
2023/07/05 07:27:52;;;;;;;7.60;7.20;;;20.70;99.90;;;;;;10551443;28;20226;-84
2023/07/05 07:32:54;;;;;;;6.70;6.30;;;20.80;99.90;;;;;;10574320;28;20227;-84
2023/07/05 07:37:58;;;;;;;6.60;6.20;;;20.80;99.90;;;;;;10571682;28;20228;-83
2023/07/05 07:43:00;;;;;;;5.70;5.40;;;21.10;99.90;;;;;;10575175;28;20223;-84
2023/07/05 07:48:02;;;;;;;5.67;5.27;;;21.50;99.90;;;;;;10533226;28;20239;-84
2023/07/05 07:53:06;;;;;;;4.20;4.00;;;22.30;99.90;;;;;;10551265;28;20227;-83
2023/07/05 07:58:08;;;;;;;4.97;4.57;;;22.60;99.90;;;;;;10547625;28;20269;-83
2023/07/05 08:03:10;;;;;;;6.60;3.90;;;22.50;99.90;;;;;;10570935;28;20226;-83
2023/07/05 08:08:15;;;;;;;3.60;3.30;;;22.30;99.90;;;;;;10552434;28;20261;-83
2023/07/05 08:13:17;;;;;;;3.10;2.60;;;22.10;99.90;;;;;;10573936;28;20220;-82
2023/07/05 08:18:19;;;;;;;3.40;3.10;;;21.80;99.90;;;;;;10573036;28;20285;-82
2023/07/05 08:23:23;;;;;;;2.93;2.73;;;21.60;99.90;;;;;;10575884;28;20197;-82
2023/07/05 08:28:26;;;;;;;5.50;3.50;;;21.40;99.90;;;;;;10580831;28;20304;-82
2023/07/05 08:33:31;;;;;;;3.13;2.90;;;21.30;99.90;;;;;;10563260;28;20216;-82
2023/07/05 08:38:34;;;;;;;2.60;2.50;;;21.20;99.90;;;;;;10584556;28;20246;-83
2023/07/05 08:43:41;;;;;;;3.30;3.10;;;21.10;99.90;;;;;;10578392;28;20197;-81
2023/07/05 08:48:45;;;;;;;3.07;2.77;;;21.10;99.90;;;;;;10560305;28;20243;-79
2023/07/05 08:53:53;;;;;;;4.20;3.40;;;21.30;99.90;;;;;;10582256;28;20225;-83
2023/07/05 08:59:03;;;;;;;2.43;2.33;;;21.40;99.90;;;;;;10553893;28;20220;-83
2023/07/05 09:04:10;;;;;;;2.23;2.13;;;21.60;99.90;;;;;;10570262;28;20517;-82
2023/07/05 09:09:28;;;;;;;3.10;2.90;;;22.00;99.90;;;;;;10568863;28;20227;-83
2023/07/05 09:14:51;;;;;;;3.70;3.40;;;22.60;99.90;;;;;;10550735;28;20211;-83
2023/07/05 09:20:04;;;;;;;3.20;3.00;;;23.50;99.60;;;;;;10568712;28;20217;-83
2023/07/05 09:25:17;;;;;;;3.13;2.70;;;23.80;96.40;;;;;;10566139;28;20196;-83
2023/07/05 09:30:24;;;;;;;3.23;3.03;;;23.80;96.30;;;;;;10544722;28;20239;-83
2023/07/05 09:35:29;;;;;;;2.90;2.70;;;23.90;95.80;;;;;;10555544;28;20204;-82
2023/07/05 09:40:38;;;;;;;3.07;2.80;;;23.90;95.00;;;;;;10561102;28;20566;-84
2023/07/05 09:45:40;;;;;;;2.80;2.60;;;24.80;93.30;;;;;;10557214;28;20196;-83
2023/07/05 09:50:49;;;;;;;2.53;2.40;;;25.50;91.90;;;;;;10536888;28;20302;-84
2023/07/05 09:56:08;;;;;;;3.83;2.77;;;26.70;89.30;;;;;;10556830;28;20204;-84
2023/07/05 10:01:15;;;;;;;2.80;2.60;;;28.50;84.10;;;;;;10557937;28;20287;-83
2023/07/05 10:06:19;;;;;;;3.00;2.80;;;30.40;76.10;;;;;;10566299;28;20249;-85
2023/07/05 10:11:26;;;;;;;2.97;2.77;;;32.00;63.50;;;;;;10597137;28;20234;-84
2023/07/05 10:16:44;;;;;;;2.70;2.50;;;33.10;59.20;;;;;;10555272;28;20226;-84
2023/07/05 10:21:48;;;;;;;3.03;2.83;;;34.40;54.20;;;;;;10538257;28;20282;-84
2023/07/05 10:27:00;;;;;;;2.90;2.70;;;34.80;53.60;;;;;;10571034;28;20215;-84
2023/07/05 10:32:02;;;;;;;3.30;3.10;;;34.40;52.20;;;;;;10557035;28;20289;-83
2023/07/05 10:37:05;;;;;;;2.97;2.77;;;32.60;52.70;;;;;;10550742;28;20239;-83
2023/07/05 10:42:11;;;;;;;3.17;2.87;;;30.90;55.30;;;;;;10550662;28;20670;-84
2023/07/05 10:47:15;;;;;;;3.03;2.83;;;29.50;57.20;;;;;;10578559;28;20345;-84
2023/07/05 10:52:19;;;;;;;4.03;3.73;;;28.50;55.70;;;;;;10548456;28;20219;-82
2023/07/05 10:57:30;;;;;;;3.10;2.90;;;27.60;55.10;;;;;;10572760;28;20247;-83
2023/07/05 11:02:39;;;;;;;3.30;3.10;;;26.80;56.90;;;;;;10551585;28;20664;-82
2023/07/05 11:07:43;;;;;;;3.90;3.60;;;26.20;56.20;;;;;;10568524;28;20286;-83
2023/07/05 11:12:48;;;;;;;5.37;3.23;;;25.80;57.70;;;;;;10549852;28;20653;-82
2023/07/05 11:17:50;;;;;;;3.13;2.93;;;25.50;58.40;;;;;;10561799;28;20287;-83
2023/07/05 11:22:53;;;;;;;2.77;2.57;;;25.30;59.30;;;;;;10563937;28;20200;-82
2023/07/05 11:27:57;;;;;;;3.57;3.27;;;25.00;61.30;;;;;;10560578;28;20212;-82
2023/07/05 11:33:15;;;;;;;3.50;3.20;;;25.00;61.30;;;;;;10564137;28;20224;-84
2023/07/05 11:38:51;;;;;;;2.90;2.70;;;25.00;59.50;;;;;;10547021;28;20223;-82
2023/07/05 11:44:00;;;;;;;3.17;2.87;;;24.90;61.30;;;;;;10557490;28;20667;-84
2023/07/05 11:49:21;;;;;;;3.50;3.20;;;24.90;59.50;;;;;;10558212;28;20586;-84
2023/07/05 11:54:33;;;;;;;4.00;3.60;;;24.80;60.20;;;;;;10542042;28;20223;-83
2023/07/05 11:59:40;;;;;;;3.07;2.87;;;24.70;60.50;;;;;;10547531;28;20215;-82
2023/07/05 12:04:43;;;;;;;3.50;3.20;;;24.70;58.60;;;;;;10561217;28;20204;-84
2023/07/05 12:09:45;;;;;;;6.00;3.40;;;24.70;60.20;;;;;;10544564;28;20220;-83
2023/07/05 12:14:49;;;;;;;3.13;2.93;;;24.70;59.80;;;;;;10564091;28;20210;-84
2023/07/05 12:19:52;;;;;;;2.50;2.30;;;24.70;59.70;;;;;;10565599;28;20225;-83
2023/07/05 12:24:57;;;;;;;3.00;2.80;;;24.70;57.20;;;;;;10564457;28;20299;-82
2023/07/05 12:30:03;;;;;;;3.50;3.20;;;24.60;57.10;;;;;;10573553;28;20244;-82
2023/07/05 12:35:15;;;;;;;3.67;3.37;;;24.60;56.40;;;;;;10526789;28;20199;-82
2023/07/05 12:40:23;;;;;;;2.73;2.53;;;24.40;56.60;;;;;;10559636;28;20225;-84
2023/07/05 12:45:29;;;;;;;2.90;2.70;;;24.30;57.30;;;;;;10561170;28;20200;-81
2023/07/05 12:50:32;;;;;;;2.60;2.40;;;24.30;56.70;;;;;;10563497;28;20235;-84
2023/07/05 12:55:37;;;;;;;2.70;2.47;;;24.20;57.50;;;;;;10590468;28;20196;-81
2023/07/05 13:00:50;;;;;;;4.80;4.30;;;24.10;56.80;;;;;;10529795;28;20189;-83
2023/07/05 13:05:53;;;;;;;3.17;2.97;;;24.10;56.80;;;;;;10539650;28;20216;-84
2023/07/05 13:10:56;;;;;;;2.73;2.50;;;24.00;56.40;;;;;;10565338;28;20269;-84
2023/07/05 13:16:18;;;;;;;2.20;2.10;;;23.90;55.60;;;;;;10558003;28;20254;-84
2023/07/05 13:21:21;;;;;;;2.43;2.23;;;23.90;56.60;;;;;;10544011;28;20199;-82
2023/07/05 13:26:30;;;;;;;2.80;2.60;;;24.00;55.20;;;;;;10557300;28;20221;-84
2023/07/05 13:31:33;;;;;;;3.27;3.00;;;24.00;55.80;;;;;;10523621;28;20209;-84
2023/07/05 13:36:37;;;;;;;2.80;2.60;;;24.00;55.50;;;;;;10555484;28;20320;-83
2023/07/05 13:41:39;;;;;;;2.83;2.63;;;23.90;56.30;;;;;;10557173;28;20204;-83
2023/07/05 13:46:43;;;;;;;2.67;2.47;;;24.00;54.60;;;;;;10554922;28;20224;-84
2023/07/05 13:51:47;;;;;;;2.90;2.50;;;24.00;55.20;;;;;;10558483;28;20225;-84
2023/07/05 13:56:49;;;;;;;2.70;2.50;;;24.00;55.50;;;;;;10533582;28;20739;-82
2023/07/05 14:01:53;;;;;;;3.17;2.70;;;24.00;55.50;;;;;;10556220;28;20200;-83
2023/07/05 14:06:55;;;;;;;2.57;2.37;;;24.10;55.20;;;;;;10555523;28;20289;-83
2023/07/05 14:11:59;;;;;;;2.20;2.03;;;24.20;54.50;;;;;;10535782;28;20263;-83
2023/07/05 14:17:02;;;;;;;6.63;2.50;;;24.20;55.10;;;;;;10555714;28;20757;-83
2023/07/05 14:22:05;;;;;;;2.60;2.40;;;24.20;54.40;;;;;;10556707;28;20195;-85
2023/07/05 14:27:14;;;;;;;2.60;2.40;;;24.30;53.90;;;;;;10530392;28;20224;-85
2023/07/05 14:32:18;;;;;;;2.80;2.57;;;24.40;55.00;;;;;;10535477;28;20259;-85
2023/07/05 14:37:20;;;;;;;4.33;2.40;;;24.40;54.70;;;;;;10538752;28;20212;-83
2023/07/05 14:42:22;;;;;;;3.07;2.60;;;24.40;54.60;;;;;;10556053;28;20189;-85
2023/07/05 14:47:26;;;;;;;2.50;2.30;;;24.30;54.30;;;;;;10535830;28;20226;-84
2023/07/05 14:52:28;;;;;;;2.63;2.23;;;24.30;55.10;;;;;;10547169;28;20223;-84
2023/07/05 14:57:30;;;;;;;5.30;2.30;;;24.20;54.70;;;;;;10564245;28;20277;-82
2023/07/05 15:02:35;;;;;;;2.53;2.33;;;24.20;53.60;;;;;;10563124;28;20233;-84
2023/07/05 15:07:38;;;;;;;3.53;2.73;;;24.00;55.00;;;;;;10564504;28;20599;-85
2023/07/05 15:12:40;;;;;;;2.03;1.80;;;24.00;54.60;;;;;;10562077;28;20252;-83
2023/07/05 15:17:44;;;;;;;3.00;2.70;;;24.00;54.90;;;;;;10544934;28;20226;-84
2023/07/05 15:22:47;;;;;;;2.33;2.13;;;23.90;54.90;;;;;;10560790;28;20893;-84
2023/07/05 15:27:51;;;;;;;3.57;2.13;;;23.80;55.90;;;;;;10561093;28;20690;-84
2023/07/05 15:32:55;;;;;;;2.80;2.50;;;23.80;56.00;;;;;;10562789;28;20299;-83
2023/07/05 15:37:57;;;;;;;3.50;2.17;;;23.80;56.10;;;;;;10563326;28;20292;-84
2023/07/05 15:42:59;;;;;;;2.10;2.00;;;23.80;55.90;;;;;;10530307;28;20196;-85
2023/07/05 15:48:03;;;;;;;3.03;2.20;;;23.70;55.40;;;;;;10551042;28;20312;-84
2023/07/05 15:53:05;;;;;;;2.50;2.30;;;23.80;56.80;;;;;;10563125;28;20268;-84
2023/07/05 15:58:07;;;;;;;2.40;2.20;;;23.90;55.20;;;;;;10561389;28;20769;-84
2023/07/05 16:03:11;;;;;;;2.10;2.00;;;24.00;54.80;;;;;;10560076;28;20227;-84
2023/07/05 16:08:13;;;;;;;2.47;2.20;;;24.20;55.50;;;;;;10561866;28;20221;-83
2023/07/05 16:13:15;;;;;;;2.43;2.23;;;24.10;54.70;;;;;;10548600;28;20220;-83
2023/07/05 16:18:18;;;;;;;2.70;2.23;;;24.10;54.10;;;;;;10532434;28;20231;-84
2023/07/05 16:23:20;;;;;;;2.67;2.47;;;24.00;54.00;;;;;;10563834;28;20667;-84
2023/07/05 16:28:22;;;;;;;2.90;2.63;;;24.00;53.50;;;;;;10555643;28;20271;-84
2023/07/05 16:33:26;;;;;;;2.40;2.20;;;24.00;54.60;;;;;;10562286;28;20324;-84
2023/07/05 16:38:28;;;;;;;3.60;3.00;;;24.00;54.10;;;;;;10563173;28;20683;-84
2023/07/05 16:43:30;;;;;;;3.30;2.13;;;23.90;54.30;;;;;;10568727;28;20188;-82
2023/07/05 16:48:35;;;;;;;2.60;2.40;;;23.80;54.90;;;;;;10539468;28;20232;-83
2023/07/05 16:53:39;;;;;;;2.40;2.20;;;23.70;55.70;;;;;;10567618;28;20212;-82
2023/07/05 16:58:41;;;;;;;4.07;2.83;;;23.70;57.70;;;;;;10574455;28;20956;-82
2023/07/05 17:03:45;;;;;;;2.90;2.67;;;23.60;55.60;;;;;;10577857;28;20204;-81
2023/07/05 17:08:47;;;;;;;2.83;2.50;;;23.70;55.00;;;;;;10559389;22;20712;-78
2023/07/05 17:13:52;;;;;;;2.30;2.10;;;23.60;55.30;;;;;;10473443;28;20257;-80
2023/07/05 17:18:55;;;;;;;2.50;2.10;;;23.60;54.40;;;;;;10447707;28;20229;-78
2023/07/05 17:23:57;;;;;;;2.87;2.67;;;23.50;56.40;;;;;;10460872;28;20241;-79
2023/07/05 17:29:00;;;;;;;5.30;2.70;;;23.50;57.60;;;;;;10459252;28;20216;-79
2023/07/05 17:34:03;;;;;;;2.70;2.20;;;23.50;55.70;;;;;;10459939;28;20585;-79
2023/07/05 17:39:06;;;;;;;2.87;2.37;;;23.40;56.10;;;;;;10477408;28;20240;-79
2023/07/05 17:44:08;;;;;;;2.17;2.07;;;23.40;55.20;;;;;;10443339;28;20186;-79
2023/07/05 17:49:12;;;;;;;4.70;2.60;;;23.40;54.40;;;;;;10456699;28;20233;-79
2023/07/05 17:54:14;;;;;;;2.40;2.20;;;23.30;55.70;;;;;;10473737;28;20222;-79
2023/07/05 17:59:16;;;;;;;2.50;2.30;;;23.30;55.60;;;;;;10458555;28;20757;-79
2023/07/05 18:04:20;;;;;;;2.43;2.10;;;23.20;56.80;;;;;;10484227;28;20216;-79
2023/07/05 18:09:23;;;;;;;2.00;1.90;;;23.20;55.40;;;;;;10461660;28;20722;-78
2023/07/05 18:14:25;;;;;;;2.67;2.00;;;23.20;55.50;;;;;;10477998;28;20279;-79
2023/07/05 18:19:28;;;;;;;2.63;2.30;;;23.10;55.80;;;;;;10478790;28;20217;-78
2023/07/05 18:24:31;;;;;;;2.00;1.80;;;23.00;56.00;;;;;;10454583;28;20200;-78
2023/07/05 18:29:33;;;;;;;2.37;2.17;;;23.00;55.50;;;;;;10486334;28;20275;-77
2023/07/05 18:34:37;;;;;;;2.60;2.40;;;23.00;55.60;;;;;;10464825;28;20219;-77
2023/07/05 18:39:39;;;;;;;2.97;2.40;;;22.90;56.40;;;;;;10483718;28;20225;-77
2023/07/05 18:44:41;;;;;;;2.40;2.20;;;22.80;57.80;;;;;;10477306;28;20206;-78
2023/07/05 18:49:45;;;;;;;2.50;2.33;;;22.80;57.40;;;;;;10460940;28;20313;-78
2023/07/05 18:54:48;;;;;;;2.70;2.50;;;22.70;57.00;;;;;;10450593;28;20230;-77
2023/07/05 18:59:52;;;;;;;3.20;2.37;;;22.60;57.30;;;;;;10447697;28;20588;-77
2023/07/05 19:04:55;;;;;;;3.63;2.27;;;22.60;58.10;;;;;;10469590;28;20238;-77
2023/07/05 19:09:58;;;;;;;2.93;2.20;;;22.50;56.70;;;;;;10472854;28;20225;-79
2023/07/05 19:15:00;;;;;;;3.00;2.70;;;22.50;59.00;;;;;;10449211;28;20234;-78
2023/07/05 19:20:08;;;;;;;2.80;2.60;;;22.40;58.40;;;;;;10472341;28;20234;-77
2023/07/05 19:25:12;;;;;;;2.50;2.30;;;22.30;58.30;;;;;;10450860;28;20217;-77
2023/07/05 19:30:15;;;;;;;4.40;4.00;;;22.20;58.80;;;;;;10448380;28;20236;-77
2023/07/05 19:35:18;;;;;;;4.67;4.27;;;22.20;59.10;;;;;;10478813;28;20581;-77
2023/07/05 19:40:21;;;;;;;4.47;3.20;;;22.10;59.70;;;;;;10454501;28;20612;-79
2023/07/05 19:45:23;;;;;;;2.57;2.40;;;22.10;58.70;;;;;;10471757;28;20293;-79
2023/07/05 19:50:27;;;;;;;3.27;2.67;;;22.00;58.80;;;;;;10468648;28;20228;-79
2023/07/05 19:55:33;;;;;;;5.43;3.80;;;22.00;60.00;;;;;;10476318;28;20709;-79
2023/07/05 20:00:36;;;;;;;3.17;2.73;;;22.00;62.10;;;;;;10458276;28;20273;-78
2023/07/05 20:05:41;;;;;;;3.30;3.00;;;22.00;62.20;;;;;;10471161;28;20280;-79
2023/07/05 20:10:43;;;;;;;3.13;2.40;;;21.90;60.30;;;;;;10442263;28;20242;-78
2023/07/05 20:15:56;;;;;;;2.57;2.37;;;21.90;62.00;;;;;;10467943;28;20712;-77
2023/07/05 20:20:59;;;;;;;3.10;2.83;;;21.90;63.10;;;;;;10466622;28;20229;-78
2023/07/05 20:26:02;;;;;;;3.13;2.90;;;21.90;63.50;;;;;;10476258;28;20624;-78
2023/07/05 20:31:04;;;;;;;3.00;2.70;;;21.80;61.80;;;;;;10468259;28;20232;-77
2023/07/05 20:36:10;;;;;;;2.97;2.67;;;21.80;62.70;;;;;;10470959;28;20285;-78
2023/07/05 20:41:13;;;;;;;2.93;2.73;;;21.80;61.60;;;;;;10458655;28;20221;-78
2023/07/05 20:46:15;;;;;;;5.13;2.90;;;21.60;61.40;;;;;;10475517;28;20198;-78
2023/07/05 20:51:19;;;;;;;3.63;3.20;;;21.60;61.40;;;;;;10456665;28;20217;-78
2023/07/05 20:56:21;;;;;;;3.00;2.70;;;21.40;62.50;;;;;;10470170;28;20229;-79
2023/07/05 21:01:23;;;;;;;3.10;2.40;;;21.20;62.70;;;;;;10473569;28;20194;-78
2023/07/05 21:06:29;;;;;;;2.73;2.30;;;21.10;63.70;;;;;;10474966;28;20285;-79
2023/07/05 21:11:31;;;;;;;2.80;2.60;;;21.10;62.40;;;;;;10470072;28;20603;-78
2023/07/05 21:16:33;;;;;;;2.40;2.20;;;21.00;63.20;;;;;;10470908;28;20311;-78
2023/07/05 21:21:38;;;;;;;2.90;2.70;;;21.00;63.30;;;;;;10467676;28;20197;-78
2023/07/05 21:26:40;;;;;;;2.47;2.27;;;20.90;64.60;;;;;;10474682;28;20224;-79
2023/07/05 21:31:42;;;;;;;2.57;2.37;;;20.80;65.20;;;;;;10472710;28;20244;-79
2023/07/05 21:36:46;;;;;;;2.53;2.33;;;20.80;64.70;;;;;;10447281;28;20282;-79
2023/07/05 21:41:49;;;;;;;3.50;2.83;;;20.80;64.80;;;;;;10470053;28;20228;-79
2023/07/05 21:46:51;;;;;;;2.63;2.43;;;20.70;64.30;;;;;;10470597;28;20221;-78
2023/07/05 21:51:55;;;;;;;2.90;2.70;;;20.70;63.70;;;;;;10470696;28;20197;-78
2023/07/05 21:56:57;;;;;;;2.83;2.63;;;20.70;65.40;;;;;;10474891;28;20221;-78
2023/07/05 22:01:59;;;;;;;4.27;3.00;;;20.70;64.80;;;;;;10474586;28;20225;-79
2023/07/05 22:07:03;;;;;;;2.40;2.30;;;20.60;65.40;;;;;;10475986;28;20663;-79
2023/07/05 22:12:06;;;;;;;3.20;2.60;;;20.50;65.20;;;;;;10457610;28;20227;-77
2023/07/05 22:17:08;;;;;;;2.83;2.57;;;20.50;65.60;;;;;;10452452;28;20243;-78
2023/07/05 22:22:12;;;;;;;2.87;2.67;;;20.40;65.30;;;;;;10471284;28;20289;-79
2023/07/05 22:27:14;;;;;;;2.80;2.20;;;20.40;65.00;;;;;;10473989;28;20251;-78
2023/07/05 22:32:16;;;;;;;2.63;2.10;;;20.40;63.40;;;;;;10473400;28;20739;-78
2023/07/05 22:37:22;;;;;;;2.87;2.67;;;20.30;64.30;;;;;;10476581;28;20697;-78
2023/07/05 22:42:24;;;;;;;7.93;3.30;;;20.30;66.00;;;;;;10474772;28;20213;-78
2023/07/05 22:47:26;;;;;;;2.90;2.63;;;20.30;64.70;;;;;;10472224;28;20217;-78
2023/07/05 22:52:29;;;;;;;3.37;2.77;;;20.30;65.20;;;;;;10474127;28;20220;-78
2023/07/05 22:57:31;;;;;;;2.80;2.50;;;20.30;67.10;;;;;;10471638;28;20221;-79
2023/07/05 23:02:33;;;;;;;2.73;2.40;;;20.30;67.40;;;;;;10467481;28;20236;-79
2023/07/05 23:07:37;;;;;;;3.97;2.67;;;20.30;67.80;;;;;;10472216;28;20304;-77
2023/07/05 23:12:39;;;;;;;3.10;2.43;;;20.30;67.90;;;;;;10451454;28;20565;-77
2023/07/05 23:17:42;;;;;;;3.10;2.70;;;20.30;67.10;;;;;;10563099;23;20238;-82
2023/07/05 23:22:45;;;;;;;3.07;2.87;;;20.30;67.10;;;;;;10530794;28;20269;-82
2023/07/05 23:27:47;;;;;;;4.80;2.50;;;20.20;67.30;;;;;;10535538;28;20291;-83
2023/07/05 23:32:50;;;;;;;3.53;2.70;;;20.20;67.60;;;;;;10557272;28;20637;-84
2023/07/05 23:37:53;;;;;;;4.27;2.40;;;20.20;67.80;;;;;;10520597;28;20227;-84
2023/07/05 23:42:58;;;;;;;2.10;2.00;;;20.20;68.20;;;;;;10547803;28;20729;-83
2023/07/05 23:48:01;;;;;;;2.93;2.50;;;20.20;69.90;;;;;;10550088;28;20213;-84
2023/07/05 23:53:05;;;;;;;2.20;2.00;;;20.20;68.50;;;;;;10558712;28;20585;-83
2023/07/05 23:58:09;;;;;;;3.37;2.77;;;20.30;68.80;;;;;;10552308;28;20227;-83
